createdAt,value
2018-12-17T00:01:04.617Z,95558.00
2018-12-17T00:03:33.105Z,95566.38
2018-12-17T00:06:01.726Z,95552.88
2018-12-17T00:08:32.166Z,95538.61
2018-12-17T00:11:00.969Z,95538.39
2018-12-17T00:13:29.500Z,95551.11
2018-12-17T00:15:58.090Z,95553.69
2018-12-17T00:18:26.646Z,95551.81
2018-12-17T00:20:55.177Z,95549.17
2018-12-17T00:23:23.752Z,95554.42
2018-12-17T00:25:52.347Z,95555.20
2018-12-17T00:28:20.861Z,95549.66
2018-12-17T00:30:49.432Z,95557.03
2018-12-17T00:33:17.992Z,95563.86
2018-12-17T00:35:46.520Z,95568.08
2018-12-17T00:38:15.092Z,95570.75
2018-12-17T00:40:43.647Z,95565.25
2018-12-17T00:43:12.244Z,95572.62
2018-12-17T00:45:40.774Z,95582.38
2018-12-17T00:48:09.371Z,95577.39
2018-12-17T00:50:38.001Z,95579.70
2018-12-17T00:53:06.605Z,95579.96
2018-12-17T00:55:35.151Z,95586.63
2018-12-17T00:58:04.336Z,95587.14
2018-12-17T01:00:32.965Z,95579.59
2018-12-17T01:03:01.487Z,95581.09
2018-12-17T01:05:30.109Z,95575.04
2018-12-17T01:07:58.685Z,95575.04
2018-12-17T01:10:27.224Z,95572.66
2018-12-17T01:12:55.885Z,95572.40
2018-12-17T01:15:24.444Z,95565.80
2018-12-17T01:17:52.971Z,95563.38
2018-12-17T01:20:21.514Z,95566.53
2018-12-17T01:22:50.135Z,95552.27
2018-12-17T01:25:18.660Z,95552.27
2018-12-17T01:27:47.178Z,95555.64
2018-12-17T01:30:15.857Z,95554.06
2018-12-17T01:32:44.528Z,95555.94
2018-12-17T01:35:13.134Z,95548.34
2018-12-17T01:37:41.723Z,95541.47
2018-12-17T01:40:10.425Z,95532.23
2018-12-17T01:42:38.962Z,95522.77
2018-12-17T01:45:07.774Z,95527.75
2018-12-17T01:47:36.598Z,95529.23
2018-12-17T01:50:05.331Z,95525.34
2018-12-17T01:52:33.912Z,95519.64
2018-12-17T01:55:02.505Z,95518.77
2018-12-17T01:57:31.087Z,95523.28
2018-12-17T01:59:59.614Z,95518.19
2018-12-17T02:02:28.161Z,95515.58
2018-12-17T02:04:56.748Z,95504.95
2018-12-17T02:07:25.254Z,95510.20
2018-12-17T02:09:53.744Z,95513.61
2018-12-17T02:12:22.343Z,95510.69
2018-12-17T02:14:50.863Z,95514.94
2018-12-17T02:17:19.420Z,95513.33
2018-12-17T02:19:47.983Z,95512.04
2018-12-17T02:22:16.507Z,95508.91
2018-12-17T02:24:45.059Z,95513.94
2018-12-17T02:27:13.766Z,95511.59
2018-12-17T02:29:42.730Z,95508.66
2018-12-17T02:32:11.323Z,95508.98
2018-12-17T02:34:39.915Z,95507.20
2018-12-17T02:37:08.420Z,95511.94
2018-12-17T02:39:36.927Z,95509.84
2018-12-17T02:42:05.542Z,95507.43
2018-12-17T02:44:34.178Z,95510.33
2018-12-17T02:47:02.791Z,95507.85
2018-12-17T02:49:31.595Z,95508.50
2018-12-17T02:52:00.124Z,95505.63
2018-12-17T02:54:28.774Z,95511.20
2018-12-17T02:56:57.328Z,95514.58
2018-12-17T02:59:25.928Z,95513.06
2018-12-17T03:01:54.524Z,95513.88
2018-12-17T03:04:23.105Z,95516.12
2018-12-17T03:06:51.743Z,95514.84
2018-12-17T03:09:20.240Z,95517.83
2018-12-17T03:11:48.811Z,95518.64
2018-12-17T03:14:17.342Z,95515.67
2018-12-17T03:16:45.869Z,95516.22
2018-12-17T03:19:14.542Z,95509.84
2018-12-17T03:21:43.149Z,95511.33
2018-12-17T03:24:11.688Z,95515.06
2018-12-17T03:26:40.202Z,95513.00
2018-12-17T03:29:08.795Z,95517.25
2018-12-17T03:31:37.760Z,95513.00
2018-12-17T03:34:06.327Z,95514.19
2018-12-17T03:36:34.834Z,95512.88
2018-12-17T03:39:04.324Z,95516.60
2018-12-17T03:41:32.872Z,95519.34
2018-12-17T03:44:01.412Z,95522.02
2018-12-17T03:46:29.946Z,95522.05
2018-12-17T03:48:58.487Z,95521.80
2018-12-17T03:51:27.012Z,95523.70
2018-12-17T03:53:55.566Z,95520.64
2018-12-17T03:56:24.132Z,95528.59
2018-12-17T03:58:59.282Z,95524.14
2018-12-17T04:01:23.338Z,95524.14
2018-12-17T04:03:51.919Z,95526.11
2018-12-17T04:06:20.479Z,95533.68
2018-12-17T04:08:49.030Z,95532.36
2018-12-17T04:11:17.690Z,95532.16
2018-12-17T04:13:46.217Z,95536.42
2018-12-17T04:16:14.771Z,95543.05
2018-12-17T04:18:43.253Z,95540.41
2018-12-17T04:21:11.857Z,95535.39
2018-12-17T04:23:40.439Z,95544.51
2018-12-17T04:26:09.004Z,95539.77
2018-12-17T04:28:37.561Z,95537.67
2018-12-17T04:31:06.142Z,95545.22
2018-12-17T04:33:34.659Z,95541.00
2018-12-17T04:36:03.218Z,95548.69
2018-12-17T04:38:31.789Z,95550.63
2018-12-17T04:41:00.485Z,95551.66
2018-12-17T04:43:29.065Z,95555.11
2018-12-17T04:45:57.615Z,95554.97
2018-12-17T04:48:26.125Z,95555.48
2018-12-17T04:50:54.632Z,95557.03
2018-12-17T04:53:23.119Z,95555.64
2018-12-17T04:55:51.680Z,95557.00
2018-12-17T04:58:20.287Z,95551.42
2018-12-17T05:00:48.806Z,95554.36
2018-12-17T05:03:17.481Z,95558.87
2018-12-17T05:05:46.037Z,95555.20
2018-12-17T05:08:14.610Z,95556.55
2018-12-17T05:10:43.287Z,95558.42
2018-12-17T05:13:11.940Z,95547.23
2018-12-17T05:15:40.527Z,95549.36
2018-12-17T05:18:09.160Z,95544.38
2018-12-17T05:20:37.714Z,95546.95
2018-12-17T05:23:06.320Z,95547.94
2018-12-17T05:25:34.848Z,95549.23
2018-12-17T05:28:03.546Z,95557.73
2018-12-17T05:30:32.069Z,95550.62
2018-12-17T05:33:01.528Z,95553.89
2018-12-17T05:35:30.052Z,95564.20
2018-12-17T05:37:58.952Z,95557.11
2018-12-17T05:40:27.551Z,95552.90
2018-12-17T05:42:56.166Z,95554.77
2018-12-17T05:45:24.726Z,95552.31
2018-12-17T05:47:53.271Z,95552.34
2018-12-17T05:50:21.915Z,95546.04
2018-12-17T05:52:50.480Z,95552.05
2018-12-17T05:55:19.074Z,95552.31
2018-12-17T05:57:47.643Z,95552.94
2018-12-17T06:00:16.161Z,95551.95
2018-12-17T06:02:44.816Z,95552.17
2018-12-17T06:05:13.462Z,95556.86
2018-12-17T06:07:41.973Z,95552.34
2018-12-17T06:10:10.570Z,95554.41
2018-12-17T06:13:24.528Z,95558.40
2018-12-17T06:15:53.010Z,95551.87
2018-12-17T06:18:23.988Z,95553.16
2018-12-17T06:20:53.769Z,95561.14
2018-12-17T06:23:22.279Z,95561.44
2018-12-17T06:25:52.894Z,95562.72
2018-12-17T06:28:21.446Z,95558.98
2018-12-17T06:30:50.049Z,95560.41
2018-12-17T06:33:18.636Z,95564.92
2018-12-17T06:38:22.111Z,95562.45
2018-12-17T06:40:50.680Z,95563.55
2018-12-17T06:43:19.255Z,95555.55
2018-12-17T06:45:47.890Z,95554.01
2018-12-17T06:48:17.235Z,95553.81
2018-12-17T06:50:46.153Z,95557.52
2018-12-17T06:53:14.808Z,95552.84
2018-12-17T06:55:43.382Z,95555.81
2018-12-17T06:58:12.343Z,95555.23
2018-12-17T07:00:40.947Z,95560.41
2018-12-17T07:03:09.492Z,95557.48
2018-12-17T07:05:38.152Z,95565.92
2018-12-17T07:08:06.701Z,95568.59
2018-12-17T07:10:35.267Z,95569.34
2018-12-17T07:13:03.862Z,95567.25
2018-12-17T07:15:32.398Z,95571.30
2018-12-17T07:18:01.021Z,95569.50
2018-12-17T07:20:29.594Z,95564.24
2018-12-17T07:22:58.109Z,95571.54
2018-12-17T07:25:26.736Z,95569.95
2018-12-17T07:27:55.319Z,95577.03
2018-12-17T07:30:23.990Z,95576.71
2018-12-17T07:32:52.655Z,95568.23
2018-12-17T07:35:22.123Z,95580.67
2018-12-17T07:37:50.696Z,95587.23
2018-12-17T07:40:19.264Z,95574.14
2018-12-17T07:42:47.761Z,95574.38
2018-12-17T07:45:16.322Z,95573.08
2018-12-17T07:47:44.853Z,95576.11
2018-12-17T07:50:13.484Z,95579.69
2018-12-17T07:52:41.993Z,95570.92
2018-12-17T07:55:10.705Z,95573.62
2018-12-17T07:57:39.290Z,95569.94
2018-12-17T08:00:15.845Z,95570.48
2018-12-17T08:02:44.484Z,95565.53
2018-12-17T08:05:13.150Z,95562.50
2018-12-17T08:07:41.705Z,95574.77
2018-12-17T08:10:10.379Z,95576.17
2018-12-17T08:12:38.924Z,95576.17
2018-12-17T08:15:07.634Z,95574.51
2018-12-17T08:17:36.499Z,95577.20
2018-12-17T08:20:05.607Z,95565.61
2018-12-17T08:22:34.465Z,95571.58
2018-12-17T08:25:03.219Z,95576.88
2018-12-17T08:27:31.891Z,95570.42
2018-12-17T08:30:03.942Z,95562.27
2018-12-17T08:32:31.033Z,95567.97
2018-12-17T08:34:59.612Z,95560.88
2018-12-17T08:37:28.211Z,95558.82
2018-12-17T08:39:56.740Z,95562.11
2018-12-17T08:42:25.328Z,95568.70
2018-12-17T08:44:53.806Z,95560.67
2018-12-17T08:47:28.978Z,95553.86
2018-12-17T08:49:57.490Z,95553.61
2018-12-17T08:52:26.164Z,95555.18
2018-12-17T08:54:54.965Z,95552.00
2018-12-17T08:57:23.518Z,95548.31
2018-12-17T08:59:52.096Z,95547.22
2018-12-17T09:02:20.656Z,95540.88
2018-12-17T09:04:49.229Z,95539.80
2018-12-17T09:07:17.781Z,95540.32
2018-12-17T09:09:46.361Z,95538.41
2018-12-17T09:12:14.960Z,95538.41
2018-12-17T09:14:43.455Z,95536.30
2018-12-17T09:17:11.982Z,95532.09
2018-12-17T09:19:40.766Z,95533.16
2018-12-17T09:22:09.412Z,95533.67
2018-12-17T09:24:38.054Z,95528.53
2018-12-17T09:27:06.598Z,95527.28
2018-12-17T09:29:35.219Z,95524.35
2018-12-17T09:32:03.844Z,95520.17
2018-12-17T09:34:32.419Z,95525.22
2018-12-17T09:37:01.055Z,95530.23
2018-12-17T09:39:29.635Z,95525.75
2018-12-17T09:41:58.178Z,95523.58
2018-12-17T09:44:26.817Z,95521.50
2018-12-17T09:46:55.430Z,95524.41
2018-12-17T09:49:24.011Z,95521.23
2018-12-17T09:51:52.664Z,95510.61
2018-12-17T09:54:21.187Z,95507.16
2018-12-17T09:56:49.756Z,95508.48
2018-12-17T09:59:18.581Z,95506.38
2018-12-17T10:01:49.239Z,95506.06
2018-12-17T10:04:17.766Z,95498.36
2018-12-17T10:06:46.343Z,95493.85
2018-12-17T10:09:14.970Z,95489.08
2018-12-17T10:11:43.490Z,95481.67
2018-12-17T10:14:12.011Z,95480.86
2018-12-17T10:16:40.652Z,95476.09
2018-12-17T10:19:09.219Z,95479.80
2018-12-17T10:21:37.774Z,95476.89
2018-12-17T10:24:06.561Z,95476.09
2018-12-17T10:26:35.528Z,95470.80
2018-12-17T10:29:04.177Z,95469.72
2018-12-17T10:31:32.728Z,95463.59
2018-12-17T10:34:01.306Z,95460.13
2018-12-17T10:36:29.898Z,95457.48
2018-12-17T10:38:58.417Z,95452.72
2018-12-17T10:41:27.013Z,95459.62
2018-12-17T10:43:55.527Z,95456.15
2018-12-17T10:46:24.085Z,95453.78
2018-12-17T10:48:52.589Z,95446.62
2018-12-17T10:51:21.118Z,95444.21
2018-12-17T10:53:49.669Z,95441.59
2018-12-17T10:56:18.246Z,95444.26
2018-12-17T10:58:46.774Z,95444.24
2018-12-17T11:01:20.435Z,95445.05
2018-12-17T11:03:55.809Z,95450.87
2018-12-17T11:06:24.304Z,95445.33
2018-12-17T11:08:52.987Z,95435.75
2018-12-17T11:11:21.553Z,95441.59
2018-12-17T11:13:50.071Z,95439.45
2018-12-17T11:16:18.711Z,95440.50
2018-12-17T11:18:47.320Z,95436.56
2018-12-17T11:21:16.251Z,95435.50
2018-12-17T11:23:44.900Z,95429.40
2018-12-17T11:26:13.490Z,95435.47
2018-12-17T11:28:42.108Z,95433.33
2018-12-17T11:31:10.604Z,95427.22
2018-12-17T11:33:39.156Z,95428.27
2018-12-17T11:36:07.736Z,95425.09
2018-12-17T11:38:36.456Z,95425.66
2018-12-17T11:41:05.050Z,95432.83
2018-12-17T11:43:33.623Z,95425.65
2018-12-17T11:46:06.299Z,95417.93
2018-12-17T11:48:35.150Z,95426.17
2018-12-17T11:51:03.696Z,95427.45
2018-12-17T11:53:32.234Z,95429.05
2018-12-17T11:56:00.810Z,95419.23
2018-12-17T11:58:29.479Z,95410.77
2018-12-17T12:01:01.826Z,95417.98
2018-12-17T12:03:31.953Z,95418.78
2018-12-17T12:06:00.547Z,95424.32
2018-12-17T12:08:29.182Z,95425.66
2018-12-17T12:10:57.703Z,95419.83
2018-12-17T12:13:26.311Z,95426.72
2018-12-17T12:15:54.803Z,95426.98
2018-12-17T12:18:23.347Z,95431.25
2018-12-17T12:20:51.938Z,95432.83
2018-12-17T12:23:20.506Z,95435.50
2018-12-17T12:25:49.113Z,95432.59
2018-12-17T12:28:17.646Z,95429.13
2018-12-17T12:30:46.275Z,95433.08
2018-12-17T12:33:14.853Z,95426.69
2018-12-17T12:35:43.402Z,95433.56
2018-12-17T12:38:11.966Z,95435.44
2018-12-17T12:40:40.555Z,95429.62
2018-12-17T12:43:09.079Z,95426.18
2018-12-17T12:45:38.611Z,95429.62
2018-12-17T12:48:07.151Z,95427.00
2018-12-17T12:50:35.737Z,95434.15
2018-12-17T12:53:04.291Z,95432.30
2018-12-17T12:55:32.893Z,95433.38
2018-12-17T12:58:03.843Z,95425.40
2018-12-17T13:00:32.128Z,95420.36
2018-12-17T13:03:00.784Z,95428.84
2018-12-17T13:05:29.476Z,95430.17
2018-12-17T13:07:58.029Z,95416.67
2018-12-17T13:10:26.678Z,95435.48
2018-12-17T13:12:55.269Z,95437.08
2018-12-17T13:15:23.876Z,95155.49
2018-12-17T13:17:52.435Z,95428.59
2018-12-17T13:20:20.982Z,95429.63
2018-12-17T13:22:49.572Z,95431.52
2018-12-17T13:25:23.081Z,95425.67
2018-12-17T13:27:51.655Z,95433.63
2018-12-17T13:30:20.401Z,95435.49
2018-12-17T13:32:48.955Z,95438.39
2018-12-17T13:35:17.549Z,95450.31
2018-12-17T13:37:46.130Z,95445.00
2018-12-17T13:40:14.740Z,95452.42
2018-12-17T13:42:43.346Z,95453.20
2018-12-17T13:45:12.553Z,95448.66
2018-12-17T13:47:41.100Z,95458.17
2018-12-17T13:50:14.924Z,95463.49
2018-12-17T13:52:47.007Z,95470.09
2018-12-17T13:55:15.867Z,95472.50
2018-12-17T13:57:44.459Z,95477.47
2018-12-17T14:00:13.517Z,95482.02
2018-12-17T14:02:42.063Z,95479.70
2018-12-17T14:05:10.684Z,95479.16
2018-12-17T14:07:39.246Z,95469.09
2018-12-17T14:10:15.270Z,95461.69
2018-12-17T14:12:43.850Z,95465.37
2018-12-17T14:15:12.427Z,95457.68
2018-12-17T14:17:45.101Z,95462.17
2018-12-17T14:20:18.838Z,95466.94
2018-12-17T14:22:47.428Z,95468.79
2018-12-17T14:25:16.014Z,95464.28
2018-12-17T14:27:44.602Z,95470.64
2018-12-17T14:30:13.192Z,95471.19
2018-12-17T14:32:41.820Z,95474.64
2018-12-17T14:35:10.403Z,95468.83
2018-12-17T14:37:44.320Z,95481.27
2018-12-17T14:40:12.997Z,95485.73
2018-12-17T14:42:41.552Z,95488.05
2018-12-17T14:45:10.423Z,95484.84
2018-12-17T14:47:39.137Z,95491.22
2018-12-17T14:50:07.832Z,95496.52
2018-12-17T14:52:36.422Z,95491.45
2018-12-17T14:55:05.869Z,95498.03
2018-12-17T14:57:34.427Z,95505.44
2018-12-17T15:00:02.951Z,95510.74
2018-12-17T15:02:31.474Z,95518.45
2018-12-17T15:05:00.117Z,95516.61
2018-12-17T15:07:29.814Z,95515.59
2018-12-17T15:09:58.662Z,95511.37
2018-12-17T15:12:27.344Z,95520.10
2018-12-17T15:14:56.022Z,95518.49
2018-12-17T15:17:24.656Z,95522.47
2018-12-17T15:19:53.382Z,95525.39
2018-12-17T15:22:21.985Z,95525.09
2018-12-17T15:24:50.581Z,95529.58
2018-12-17T15:27:19.184Z,95519.25
2018-12-17T15:29:47.864Z,95520.33
2018-12-17T15:32:16.429Z,95524.79
2018-12-17T15:34:45.066Z,95533.02
2018-12-17T15:37:13.676Z,95531.93
2018-12-17T15:39:42.203Z,95537.55
2018-12-17T15:42:10.794Z,95535.77
2018-12-17T15:44:39.392Z,95537.39
2018-12-17T15:47:08.096Z,95533.44
2018-12-17T15:49:36.704Z,95527.78
2018-12-17T15:52:05.297Z,95528.05
2018-12-17T15:54:33.915Z,95528.88
2018-12-17T15:57:02.570Z,95529.94
2018-12-17T15:59:31.368Z,95532.58
2018-12-17T16:06:51.288Z,95539.45
2018-12-17T16:09:19.812Z,95546.59
2018-12-17T16:11:48.528Z,95548.42
2018-12-17T16:14:18.223Z,95550.09
2018-12-17T16:16:46.807Z,95557.51
2018-12-17T16:19:15.399Z,95563.94
2018-12-17T16:21:44.933Z,95560.24
2018-12-17T16:24:13.508Z,95558.59
2018-12-17T16:26:42.129Z,95570.69
2018-12-17T16:29:10.727Z,95568.58
2018-12-17T16:31:39.372Z,95567.06
2018-12-17T16:34:07.974Z,95576.12
2018-12-17T16:36:36.744Z,95583.02
2018-12-17T16:39:07.475Z,95583.80
2018-12-17T16:41:36.073Z,95593.84
2018-12-17T16:44:04.654Z,95587.76
2018-12-17T16:46:33.300Z,95592.25
2018-12-17T16:49:02.030Z,95598.03
2018-12-17T16:51:30.671Z,95595.61
2018-12-17T16:53:59.221Z,95600.09
2018-12-17T16:56:27.806Z,95609.36
2018-12-17T16:58:56.373Z,95613.09
2018-12-17T17:01:25.061Z,95616.80
2018-12-17T17:03:53.642Z,95622.42
2018-12-17T17:06:22.232Z,95626.40
2018-12-17T17:08:50.821Z,95621.56
2018-12-17T17:11:19.460Z,95625.27
2018-12-17T17:13:48.313Z,95631.66
2018-12-17T17:16:16.967Z,95634.05
2018-12-17T17:18:45.592Z,95637.22
2018-12-17T17:21:14.150Z,95631.94
2018-12-17T17:23:42.728Z,95628.46
2018-12-17T17:26:11.331Z,95631.64
2018-12-17T17:28:39.898Z,95636.43
2018-12-17T17:31:08.429Z,95636.09
2018-12-17T17:33:37.019Z,95633.16
2018-12-17T17:36:05.647Z,95627.83
2018-12-17T17:38:34.195Z,95626.27
2018-12-17T17:41:03.037Z,95634.50
2018-12-17T17:43:31.579Z,95635.52
2018-12-17T17:46:00.122Z,95633.61
2018-12-17T17:48:28.686Z,95633.09
2018-12-17T17:50:57.328Z,95638.45
2018-12-17T17:53:26.034Z,95640.34
2018-12-17T17:55:54.652Z,95637.72
2018-12-17T17:58:23.220Z,95639.03
2018-12-17T18:00:51.953Z,95640.11
2018-12-17T18:03:20.703Z,95648.08
2018-12-17T18:05:49.277Z,95644.41
2018-12-17T18:08:17.862Z,95650.80
2018-12-17T18:10:46.770Z,95657.34
2018-12-17T18:13:15.324Z,95645.16
2018-12-17T18:15:44.078Z,95647.48
2018-12-17T18:18:12.637Z,95653.54
2018-12-17T18:20:41.270Z,95662.29
2018-12-17T18:23:09.776Z,95662.05
2018-12-17T18:25:38.369Z,95671.58
2018-12-17T18:28:07.314Z,95667.33
2018-12-17T18:30:36.388Z,95674.66
2018-12-17T18:33:04.996Z,95670.95
2018-12-17T18:35:34.167Z,95676.77
2018-12-17T18:38:02.722Z,95671.49
2018-12-17T18:40:31.383Z,95673.05
2018-12-17T18:43:00.196Z,95669.36
2018-12-17T18:45:28.772Z,95677.27
2018-12-17T18:47:57.379Z,95676.72
2018-12-17T18:50:26.042Z,95682.05
2018-12-17T18:52:54.600Z,95671.98
2018-12-17T18:55:23.171Z,95674.95
2018-12-17T18:57:52.100Z,95683.44
2018-12-17T19:00:20.797Z,95684.20
2018-12-17T19:02:49.487Z,95686.51
2018-12-17T19:05:18.578Z,95678.33
2018-12-17T19:07:47.143Z,95685.77
2018-12-17T19:10:15.724Z,95690.59
2018-12-17T19:12:44.276Z,95693.94
2018-12-17T19:15:13.084Z,95691.50
2018-12-17T19:17:42.657Z,95701.28
2018-12-17T19:20:11.313Z,95689.67
2018-12-17T19:22:40.821Z,95698.52
2018-12-17T19:25:09.382Z,95698.50
2018-12-17T19:27:38.012Z,95708.03
2018-12-17T19:30:14.498Z,95708.01
2018-12-17T19:32:43.134Z,95701.64
2018-12-17T19:35:11.752Z,95713.20
2018-12-17T19:37:40.318Z,95707.08
2018-12-17T19:40:09.244Z,95707.08
2018-12-17T19:42:37.861Z,95713.67
2018-12-17T19:45:06.650Z,95718.70
2018-12-17T19:47:35.287Z,95727.11
2018-12-17T19:50:04.381Z,95297.92
2018-12-17T19:52:32.950Z,95718.31
2018-12-17T19:55:01.540Z,95719.06
2018-12-17T19:57:30.163Z,95722.77
2018-12-17T19:59:58.716Z,95724.01
2018-12-17T20:02:27.298Z,95737.64
2018-12-17T20:04:55.896Z,95732.15
2018-12-17T20:07:24.457Z,95738.05
2018-12-17T20:09:53.085Z,95733.81
2018-12-17T20:12:21.673Z,95736.44
2018-12-17T20:14:50.387Z,95739.92
2018-12-17T20:17:18.976Z,95735.11
2018-12-17T20:19:47.566Z,95745.19
2018-12-17T20:22:16.409Z,95739.86
2018-12-17T20:24:45.351Z,95738.28
2018-12-17T20:27:13.995Z,95740.15
2018-12-17T20:29:42.651Z,95747.59
2018-12-17T20:32:11.310Z,95743.00
2018-12-17T20:34:39.998Z,95747.80
2018-12-17T20:37:08.657Z,95754.13
2018-12-17T20:39:37.298Z,95752.00
2018-12-17T20:42:05.967Z,95759.52
2018-12-17T20:44:34.623Z,95762.97
2018-12-17T20:47:03.368Z,95776.20
2018-12-17T20:49:31.985Z,95769.36
2018-12-17T20:52:00.676Z,95775.69
2018-12-17T20:54:29.299Z,95774.62
2018-12-17T20:56:58.078Z,95772.04
2018-12-17T20:59:26.717Z,95777.56
2018-12-17T21:01:55.374Z,95777.04
2018-12-17T21:04:24.003Z,95774.36
2018-12-17T21:06:52.583Z,95774.36
2018-12-17T21:09:21.312Z,95776.45
2018-12-17T21:11:49.993Z,95775.17
2018-12-17T21:14:23.736Z,95769.36
2018-12-17T21:16:52.290Z,95778.11
2018-12-17T21:19:21.114Z,95788.63
2018-12-17T21:21:51.459Z,95793.00
2018-12-17T21:24:21.277Z,95799.91
2018-12-17T21:26:49.830Z,95747.80
2018-12-17T21:29:18.452Z,95800.05
2018-12-17T21:31:47.039Z,95804.83
2018-12-17T21:34:16.165Z,95809.31
2018-12-17T21:36:44.840Z,95806.05
2018-12-17T21:39:13.604Z,95802.92
2018-12-17T21:41:42.299Z,95805.05
2018-12-17T21:44:10.971Z,95797.41
2018-12-17T21:46:39.572Z,95794.30
2018-12-17T21:49:08.240Z,95792.14
2018-12-17T21:51:36.828Z,95798.02
2018-12-17T21:54:05.798Z,95803.24
2018-12-17T21:56:34.392Z,95800.38
2018-12-17T21:59:03.096Z,95794.05
2018-12-17T22:01:32.000Z,95794.82
2018-12-17T22:04:00.544Z,95785.85
2018-12-17T22:06:29.180Z,95782.56
2018-12-17T22:08:57.741Z,95797.17
2018-12-17T22:11:26.394Z,95788.75
2018-12-17T22:13:55.930Z,95788.27
2018-12-17T22:16:24.491Z,95784.72
2018-12-17T22:18:53.063Z,95795.59
2018-12-17T22:21:21.667Z,95790.20
2018-12-17T22:23:50.319Z,95793.43
2018-12-17T22:26:18.910Z,95802.63
2018-12-17T22:28:47.480Z,95795.75
2018-12-17T22:31:16.147Z,95791.53
2018-12-17T22:33:44.665Z,95789.14
2018-12-17T22:36:14.355Z,95787.04
2018-12-17T22:38:42.932Z,95784.39
2018-12-17T22:41:11.891Z,95794.91
2018-12-17T22:43:40.483Z,95781.36
2018-12-17T22:46:09.067Z,95782.58
2018-12-17T22:48:37.612Z,95779.19
2018-12-17T22:51:06.191Z,95787.94
2018-12-17T22:53:34.729Z,95781.61
2018-12-17T22:56:03.339Z,95807.52
2018-12-17T22:58:31.913Z,95773.64
2018-12-17T23:01:00.508Z,95774.16
2018-12-17T23:03:29.183Z,95769.16
2018-12-17T23:05:58.002Z,95775.77
2018-12-17T23:08:26.887Z,95767.10
2018-12-17T23:11:06.607Z,95761.41
2018-12-17T23:13:46.312Z,95764.72
2018-12-17T23:16:26.138Z,95763.16
2018-12-17T23:18:53.634Z,95755.16
2018-12-17T23:21:22.804Z,95767.91
2018-12-17T23:23:51.539Z,95770.84
2018-12-17T23:26:20.147Z,95773.81
2018-12-17T23:28:48.757Z,95771.97
2018-12-17T23:31:17.410Z,95762.78
2018-12-17T23:33:46.119Z,95753.87
2018-12-17T23:36:14.730Z,95759.71
2018-12-17T23:38:43.437Z,95766.58
2018-12-17T23:41:12.070Z,95763.42
2018-12-17T23:43:40.722Z,95762.64
2018-12-17T23:46:09.284Z,95765.00
2018-12-17T23:48:37.935Z,95761.55
2018-12-17T23:51:06.519Z,95753.93
2018-12-17T23:53:35.125Z,95758.38
2018-12-17T23:56:03.711Z,95758.33
2018-12-17T23:58:32.292Z,95758.61
